Time;durP1;ratioP1;P1;durP2;ratioP2;P2;SDS_P1;SDS_P2;PMS_P1;PMS_P2;Temp;Humidity;BMP_temperature;BMP_pressure;BME280_temperature;BME280_humidity;BME280_pressure;Samples;Min_cycle;Max_cycle;Signal;HPM_P1;HPM_P2
2023/09/10 00:00:19;;;;;;;;;;;;;;;21.32;94.76;101746.19;5025428;28;19917;-73
2023/09/10 00:02:44;;;;;;;;;;;;;;;21.32;94.78;101741.75;5026177;28;19983;-73
2023/09/10 00:05:09;;;;;;;;;;;;;;;21.29;94.85;101742.78;5027643;28;19940;-73
2023/09/10 00:07:34;;;;;;;;;;;;;;;21.28;94.74;101745.56;5026503;28;19913;-73
2023/09/10 00:10:00;;;;;;;;;;;;;;;21.26;95.04;101748.34;5027816;28;19928;-73
2023/09/10 00:12:25;;;;;;;;;;;;;;;21.24;95.06;101752.06;5028939;28;19939;-73
2023/09/10 00:14:50;;;;;;;;;;;;;;;21.22;94.88;101748.69;5036319;28;19967;-73
2023/09/10 00:17:15;;;;;;;;;;;;;;;21.19;95.24;101747.09;5035089;28;19917;-73
2023/09/10 00:19:41;;;;;;;;;;;;;;;21.18;95.43;101747.19;5035711;28;19986;-73
2023/09/10 00:22:06;;;;;;;;;;;;;;;21.14;95.56;101743.03;5037272;28;19921;-73
2023/09/10 00:24:32;;;;;;;;;;;;;;;21.14;95.72;101741.25;5036260;28;19922;-73
2023/09/10 00:26:57;;;;;;;;;;;;;;;21.13;95.65;101733.34;5037466;28;19920;-73
2023/09/10 00:29:22;;;;;;;;;;;;;;;21.12;95.42;101742.28;5036388;28;19924;-73
2023/09/10 00:31:48;;;;;;;;;;;;;;;21.14;95.49;101743.91;5037025;28;19980;-73
2023/09/10 00:34:13;;;;;;;;;;;;;;;21.11;95.30;101738.78;5037193;28;20242;-73
2023/09/10 00:36:38;;;;;;;;;;;;;;;21.12;95.40;101737.84;5036873;28;20259;-73
2023/09/10 00:39:04;;;;;;;;;;;;;;;21.12;95.24;101732.50;5036121;28;20093;-73
2023/09/10 00:41:29;;;;;;;;;;;;;;;21.12;95.29;101728.97;5036593;28;19971;-73
2023/09/10 00:43:54;;;;;;;;;;;;;;;21.12;95.29;101724.53;5037049;28;20129;-73
2023/09/10 00:46:20;;;;;;;;;;;;;;;21.11;95.15;101728.13;5036651;28;19913;-73
2023/09/10 00:48:45;;;;;;;;;;;;;;;21.10;95.13;101729.06;5036957;28;19917;-73
2023/09/10 00:51:11;;;;;;;;;;;;;;;21.09;95.08;101727.41;5037005;28;19913;-73
2023/09/10 00:53:36;;;;;;;;;;;;;;;21.07;95.31;101735.50;5036131;28;19944;-73
2023/09/10 00:56:02;;;;;;;;;;;;;;;21.06;95.40;101730.25;5037054;28;20114;-73
2023/09/10 00:58:28;;;;;;;;;;;;;;;21.04;95.53;101724.19;5036670;28;19912;-73
2023/09/10 01:03:56;;;;;;;;;;;;;;;21.02;95.26;101723.47;5001751;28;19928;-73
2023/09/10 01:06:22;;;;;;;;;;;;;;;21.00;95.65;101728.03;5019094;28;19921;-73
2023/09/10 01:08:48;;;;;;;;;;;;;;;20.98;95.33;101727.31;5027357;28;19951;-73
2023/09/10 01:11:22;;;;;;;;;;;;;;;20.98;95.68;101729.97;5030515;28;19921;-73
2023/09/10 01:13:54;;;;;;;;;;;;;;;20.98;95.62;101729.97;5031902;28;20105;-73
2023/09/10 01:16:39;;;;;;;;;;;;;;;20.96;95.17;101731.91;5011543;28;19940;-73
2023/09/10 01:19:13;;;;;;;;;;;;;;;20.96;95.36;101732.75;4999108;28;19914;-73
2023/09/10 01:21:52;;;;;;;;;;;;;;;20.89;95.65;101732.31;5016102;28;20228;-73
2023/09/10 01:24:18;;;;;;;;;;;;;;;20.86;95.83;101727.19;5015772;28;20023;-73
2023/09/10 01:26:52;;;;;;;;;;;;;;;20.86;95.67;101734.34;5016734;28;19921;-73
2023/09/10 01:29:18;;;;;;;;;;;;;;;20.84;95.92;101733.59;5015837;28;19917;-73
2023/09/10 01:31:44;;;;;;;;;;;;;;;20.82;95.98;101731.03;5016765;28;19924;-73
2023/09/10 01:34:12;;;;;;;;;;;;;;;20.82;96.23;101731.03;5016337;28;19976;-73
2023/09/10 01:36:40;;;;;;;;;;;;;;;20.83;96.20;101732.75;5014746;28;19917;-73
2023/09/10 01:39:07;;;;;;;;;;;;;;;20.84;95.94;101730.94;5024695;28;20223;-73
2023/09/10 01:41:34;;;;;;;;;;;;;;;20.82;95.98;101731.03;5015756;28;19952;-73
2023/09/10 01:43:59;;;;;;;;;;;;;;;20.80;96.08;101724.13;5016252;28;20008;-73
2023/09/10 01:46:26;;;;;;;;;;;;;;;20.79;96.14;101733.06;5012873;28;19924;-73
2023/09/10 01:48:51;;;;;;;;;;;;;;;20.78;96.31;101734.03;5016216;28;19917;-73
2023/09/10 01:51:17;;;;;;;;;;;;;;;20.78;96.27;101736.69;5015348;28;20055;-73
2023/09/10 01:53:42;;;;;;;;;;;;;;;20.76;96.26;101734.13;5016227;28;19917;-73
2023/09/10 01:56:07;;;;;;;;;;;;;;;20.76;96.12;101734.13;5015552;28;19956;-73
2023/09/10 01:58:32;;;;;;;;;;;;;;;20.76;96.11;101738.63;5015700;28;20139;-73
2023/09/10 02:00:58;;;;;;;;;;;;;;;20.75;96.01;101732.41;5016028;28;19917;-73
2023/09/10 02:03:23;;;;;;;;;;;;;;;20.72;96.16;101732.66;5014556;28;19921;-73
2023/09/10 02:05:48;;;;;;;;;;;;;;;20.70;96.11;101737.19;5014717;28;19940;-73
2023/09/10 02:08:14;;;;;;;;;;;;;;;20.68;96.10;101740.00;5017484;28;19913;-73
2023/09/10 02:10:40;;;;;;;;;;;;;;;20.67;96.12;101742.75;5029642;28;19964;-73
2023/09/10 02:13:05;;;;;;;;;;;;;;;20.64;96.29;101745.63;5035827;28;20081;-73
2023/09/10 02:15:30;;;;;;;;;;;;;;;20.63;96.51;101744.78;5034754;28;19916;-73
2023/09/10 02:17:56;;;;;;;;;;;;;;;20.63;96.36;101744.78;5035519;28;19920;-73
2023/09/10 02:20:21;;;;;;;;;;;;;;;20.62;96.57;101744.88;5034777;28;20278;-73
2023/09/10 02:22:47;;;;;;;;;;;;;;;20.60;96.64;101746.78;5035193;28;19923;-73
2023/09/10 02:25:12;;;;;;;;;;;;;;;20.57;96.56;101745.16;5034843;28;19917;-74
2023/09/10 02:27:38;;;;;;;;;;;;;;;20.54;96.58;101740.06;5034927;28;19913;-74
2023/09/10 02:30:03;;;;;;;;;;;;;;;20.53;96.46;101738.34;5034878;28;19913;-74
2023/09/10 02:32:29;;;;;;;;;;;;;;;20.59;96.05;101729.09;5034911;28;19913;-73
2023/09/10 02:34:54;;;;;;;;;;;;;;;20.59;96.10;101734.41;5034280;28;19917;-73
2023/09/10 02:37:20;;;;;;;;;;;;;;;20.52;96.12;101728.69;5034686;28;19924;-74
2023/09/10 02:39:46;;;;;;;;;;;;;;;20.53;96.08;101723.22;5035108;28;19913;-73
2023/09/10 02:42:11;;;;;;;;;;;;;;;20.53;96.01;101730.38;5034411;28;19974;-73
2023/09/10 02:44:36;;;;;;;;;;;;;;;20.54;95.86;101732.09;5035052;28;19912;-73
2023/09/10 02:47:02;;;;;;;;;;;;;;;20.45;96.09;101724.72;5034820;28;19909;-74
2023/09/10 02:49:27;;;;;;;;;;;;;;;20.45;95.98;101722.06;5034988;28;19948;-74
2023/09/10 02:51:52;;;;;;;;;;;;;;;20.44;96.10;101723.84;5034924;28;20201;-73
2023/09/10 02:54:17;;;;;;;;;;;;;;;20.40;96.04;101726.84;5035035;28;19913;-73
2023/09/10 02:56:43;;;;;;;;;;;;;;;20.37;96.28;101719.91;5034924;28;19917;-73
2023/09/10 02:59:17;;;;;;;;;;;;;;;20.35;96.50;101724.50;5035304;28;19913;-73
2023/09/10 03:01:42;;;;;;;;;;;;;;;20.35;96.32;101720.97;5036442;28;19923;-74
2023/09/10 03:04:07;;;;;;;;;;;;;;;20.33;96.58;101721.09;5038711;28;19913;-74
2023/09/10 03:06:32;;;;;;;;;;;;;;;20.30;96.84;101721.28;5038198;28;19915;-74
2023/09/10 03:08:58;;;;;;;;;;;;;;;20.28;96.84;101724.06;5038779;28;20235;-74
2023/09/10 03:11:23;;;;;;;;;;;;;;;20.27;97.17;101725.00;5038051;28;20160;-74
2023/09/10 03:13:48;;;;;;;;;;;;;;;20.28;97.22;101721.41;5038869;28;20374;-74
2023/09/10 03:16:13;;;;;;;;;;;;;;;20.27;96.98;101713.53;5038373;28;19963;-74
2023/09/10 03:18:39;;;;;;;;;;;;;;;20.26;97.06;101717.13;5038506;28;19913;-74
2023/09/10 03:21:04;;;;;;;;;;;;;;;20.21;97.37;101717.47;5038176;28;20336;-74
2023/09/10 03:23:29;;;;;;;;;;;;;;;20.18;97.61;101716.81;5038883;28;19924;-74
2023/09/10 03:25:55;;;;;;;;;;;;;;;20.22;97.71;101707.66;5038539;28;19913;-73
2023/09/10 03:28:20;;;;;;;;;;;;;;;20.23;97.20;101714.69;5038049;28;20293;-74
2023/09/10 03:30:45;;;;;;;;;;;;;;;20.29;96.62;101703.63;5020897;28;19951;-74
2023/09/10 03:33:11;;;;;;;;;;;;;;;20.28;96.81;101705.47;5037931;28;19928;-73
2023/09/10 03:35:36;;;;;;;;;;;;;;;20.29;96.79;101698.31;5038062;28;20297;-74
2023/09/10 03:38:02;;;;;;;;;;;;;;;20.32;96.35;101700.78;5037741;28;19920;-73
2023/09/10 03:40:27;;;;;;;;;;;;;;;20.26;96.62;101701.19;5037965;28;19913;-73
2023/09/10 03:42:52;;;;;;;;;;;;;;;20.23;96.85;101702.25;5038404;28;20149;-73
2023/09/10 03:45:17;;;;;;;;;;;;;;;20.17;97.19;101704.47;5037761;28;19905;-73
2023/09/10 03:47:43;;;;;;;;;;;;;;;20.16;97.20;101706.28;5037934;28;19947;-73
2023/09/10 03:50:10;;;;;;;;;;;;;;;20.13;97.28;101702.00;5038246;28;20167;-73
2023/09/10 03:52:36;;;;;;;;;;;;;;;20.11;97.70;101701.25;5037814;28;19956;-73
2023/09/10 03:55:01;;;;;;;;;;;;;;;20.10;97.67;101696.03;5038521;28;19936;-73
2023/09/10 03:57:26;;;;;;;;;;;;;;;20.08;97.91;101700.63;5037382;28;19917;-73
2023/09/10 03:59:51;;;;;;;;;;;;;;;20.08;97.71;101700.63;5037529;28;20104;-73
2023/09/10 04:02:17;;;;;;;;;;;;;;;20.06;98.02;101700.72;5036964;28;19940;-73
2023/09/10 04:04:42;;;;;;;;;;;;;;;20.04;98.18;101699.97;5038096;28;19917;-74
2023/09/10 04:07:07;;;;;;;;;;;;;;;20.04;98.22;101699.97;5037860;28;19920;-73
2023/09/10 04:09:33;;;;;;;;;;;;;;;20.02;98.21;101699.22;5037399;28;19917;-73
2023/09/10 04:11:58;;;;;;;;;;;;;;;20.02;98.35;101701.88;5037088;28;20204;-73
2023/09/10 04:14:24;;;;;;;;;;;;;;;20.07;97.75;101697.09;5035682;28;19915;-73
2023/09/10 04:16:49;;;;;;;;;;;;;;;20.10;97.74;101704.88;5037064;28;19972;-73
2023/09/10 04:19:14;;;;;;;;;;;;;;;20.09;97.58;101705.84;5037399;28;20116;-73
2023/09/10 04:21:39;;;;;;;;;;;;;;;20.10;97.38;101704.00;5039191;28;19920;-73
2023/09/10 04:24:05;;;;;;;;;;;;;;;20.07;97.54;101698.94;5037157;28;19920;-73
2023/09/10 04:26:30;;;;;;;;;;;;;;;20.06;97.75;101702.53;5037386;28;20001;-73
2023/09/10 04:28:56;;;;;;;;;;;;;;;20.08;97.38;101705.94;5037353;28;19921;-73
2023/09/10 04:31:24;;;;;;;;;;;;;;;20.06;97.49;101702.53;5037196;28;20326;-73
2023/09/10 04:33:49;;;;;;;;;;;;;;;20.10;97.25;101696.91;5037163;28;20212;-73
2023/09/10 04:36:15;;;;;;;;;;;;;;;20.10;97.13;101698.69;5037467;28;19978;-73
2023/09/10 04:38:40;;;;;;;;;;;;;;;20.08;97.17;101689.97;5036232;28;20372;-73
2023/09/10 04:41:05;;;;;;;;;;;;;;;20.06;97.24;101691.88;5037219;28;19904;-73
2023/09/10 04:43:31;;;;;;;;;;;;;;;20.10;97.03;101696.91;5036817;28;20104;-73
2023/09/10 04:45:56;;;;;;;;;;;;;;;20.13;96.79;101702.00;5037836;28;19936;-74
2023/09/10 04:48:21;;;;;;;;;;;;;;;20.10;96.65;101704.88;5036560;28;19928;-73
2023/09/10 04:50:47;;;;;;;;;;;;;;;20.09;96.89;101697.84;5037300;28;19916;-73
2023/09/10 04:53:13;;;;;;;;;;;;;;;20.08;96.61;101706.81;5036693;28;19944;-73
2023/09/10 04:55:38;;;;;;;;;;;;;;;20.06;96.80;101700.72;5036721;28;20000;-73
2023/09/10 04:58:04;;;;;;;;;;;;;;;20.08;96.86;101705.94;5036557;28;20275;-73
2023/09/10 05:00:30;;;;;;;;;;;;;;;20.09;97.11;101708.50;5036250;28;19916;-73
2023/09/10 05:02:55;;;;;;;;;;;;;;;20.14;96.56;101709.03;5036630;28;19927;-73
2023/09/10 05:05:20;;;;;;;;;;;;;;;20.17;96.25;101705.31;5036354;28;19940;-73
2023/09/10 05:07:49;;;;;;;;;;;;;;;20.12;96.53;101707.44;5036791;28;19909;-74
2023/09/10 05:10:15;;;;;;;;;;;;;;;20.09;96.59;101708.50;5036136;28;19963;-74
2023/09/10 05:12:40;;;;;;;;;;;;;;;20.08;96.71;101701.50;5035880;28;19928;-73
2023/09/10 05:15:05;;;;;;;;;;;;;;;20.08;96.78;101703.28;5036436;28;20114;-73
2023/09/10 05:17:31;;;;;;;;;;;;;;;20.06;96.74;101700.72;5036085;28;19920;-73
2023/09/10 05:19:56;;;;;;;;;;;;;;;20.04;96.85;101693.81;5036650;28;19924;-73
2023/09/10 05:22:21;;;;;;;;;;;;;;;19.98;97.01;101694.22;5035927;28;20131;-73
2023/09/10 05:24:46;;;;;;;;;;;;;;;19.98;97.44;101694.22;5035931;28;20320;-73
2023/09/10 05:27:12;;;;;;;;;;;;;;;19.97;97.42;101698.66;5036080;28;19905;-73
2023/09/10 05:29:37;;;;;;;;;;;;;;;19.93;97.66;101698.03;5035798;28;20069;-73
2023/09/10 05:32:02;;;;;;;;;;;;;;;19.97;97.62;101701.31;5036364;28;20072;-73
2023/09/10 05:34:28;;;;;;;;;;;;;;;19.96;97.50;101702.31;5035427;28;19917;-73
2023/09/10 05:36:53;;;;;;;;;;;;;;;19.92;97.83;101695.50;5036046;28;19963;-73
2023/09/10 05:39:18;;;;;;;;;;;;;;;19.92;97.61;101699.00;5035638;28;19963;-73
2023/09/10 05:41:44;;;;;;;;;;;;;;;19.91;97.82;101694.63;5036027;28;19919;-73
2023/09/10 05:44:09;;;;;;;;;;;;;;;19.89;98.13;101701.00;5035387;28;20148;-73
2023/09/10 05:46:34;;;;;;;;;;;;;;;19.90;98.32;101705.34;5035706;28;19920;-73
2023/09/10 05:48:59;;;;;;;;;;;;;;;19.90;98.33;101703.56;5035770;28;19948;-73
2023/09/10 05:51:25;;;;;;;;;;;;;;;19.92;98.47;101709.63;5035150;28;19919;-74
2023/09/10 05:53:50;;;;;;;;;;;;;;;19.92;98.54;101708.78;5035917;28;19924;-74
2023/09/10 05:56:15;;;;;;;;;;;;;;;19.93;98.68;101707.81;5035293;28;19921;-74
2023/09/10 05:58:42;;;;;;;;;;;;;;;19.92;98.92;101703.47;5035539;28;19920;-74
2023/09/10 06:01:07;;;;;;;;;;;;;;;19.94;98.90;101712.19;5035436;28;19920;-74
2023/09/10 06:03:32;;;;;;;;;;;;;;;19.94;99.08;101714.84;5035352;28;20165;-74
2023/09/10 06:06:00;;;;;;;;;;;;;;;19.95;99.34;101716.53;5035586;28;19905;-74
2023/09/10 06:08:26;;;;;;;;;;;;;;;19.96;99.29;101712.09;5035029;28;19955;-74
2023/09/10 06:10:51;;;;;;;;;;;;;;;19.96;99.53;101718.25;5035275;28;19987;-74
2023/09/10 06:13:17;;;;;;;;;;;;;;;20.00;99.37;101713.59;5034635;28;19921;-74
2023/09/10 06:15:43;;;;;;;;;;;;;;;20.00;99.22;101725.06;5035256;28;19917;-74
2023/09/10 06:18:08;;;;;;;;;;;;;;;20.04;99.38;101725.72;5035230;28;19917;-74
2023/09/10 06:20:33;;;;;;;;;;;;;;;20.04;99.72;101725.72;5035246;28;19928;-74
2023/09/10 06:22:59;;;;;;;;;;;;;;;20.06;99.45;101726.47;5035649;28;19994;-74
2023/09/10 06:25:24;;;;;;;;;;;;;;;20.07;99.56;101733.50;5034719;28;19964;-73
2023/09/10 06:27:49;;;;;;;;;;;;;;;20.10;99.58;101726.16;5034131;28;19923;-74
2023/09/10 06:30:15;;;;;;;;;;;;;;;20.15;99.20;101733.81;5034812;28;20212;-74
2023/09/10 06:32:40;;;;;;;;;;;;;;;20.18;98.82;101736.28;5034884;28;19917;-74
2023/09/10 06:35:05;;;;;;;;;;;;;;;20.21;98.33;101738.75;5034633;28;19932;-74
2023/09/10 06:37:31;;;;;;;;;;;;;;;20.23;98.41;101744.81;5033583;28;20127;-74
2023/09/10 06:39:56;;;;;;;;;;;;;;;20.25;98.35;101745.56;5037827;28;19956;-74
2023/09/10 06:42:21;;;;;;;;;;;;;;;20.26;98.57;101747.25;5034418;28;19920;-74
2023/09/10 06:44:47;;;;;;;;;;;;;;;20.28;98.69;101747.13;5034217;28;19996;-74
2023/09/10 06:47:12;;;;;;;;;;;;;;;20.29;98.79;101741.72;5035113;28;20315;-74
2023/09/10 06:49:37;;;;;;;;;;;;;;;20.35;98.60;101744.94;5034686;28;19917;-74
2023/09/10 06:52:04;;;;;;;;;;;;;;;20.36;98.64;101750.16;5034945;28;20377;-74
2023/09/10 06:54:29;;;;;;;;;;;;;;;20.41;98.38;101757.81;5034676;28;20092;-74
2023/09/10 06:56:55;;;;;;;;;;;;;;;20.45;97.81;101752.19;5034215;28;19917;-74
2023/09/10 06:59:21;;;;;;;;;;;;;;;20.49;97.78;101751.00;5016627;28;19917;-74
2023/09/10 07:01:46;;;;;;;;;;;;;;;20.51;97.72;101746.44;5034371;28;19917;-74
2023/09/10 07:04:16;;;;;;;;;;;;;;;20.52;97.74;101752.63;5034530;28;19917;-74
2023/09/10 07:06:42;;;;;;;;;;;;;;;20.54;98.00;101748.03;5035995;28;19940;-74
2023/09/10 07:09:07;;;;;;;;;;;;;;;20.57;97.98;101749.63;5034603;28;20176;-74
2023/09/10 07:11:33;;;;;;;;;;;;;;;20.59;98.16;101756.56;5015407;28;19923;-74
2023/09/10 07:13:58;;;;;;;;;;;;;;;20.62;98.10;101747.53;5034499;28;19930;-74
2023/09/10 07:16:26;;;;;;;;;;;;;;;20.66;97.56;101741.88;5033894;28;19917;-74
2023/09/10 07:18:52;;;;;;;;;;;;;;;20.70;97.65;101753.16;5034320;28;19920;-74
2023/09/10 07:21:17;;;;;;;;;;;;;;;20.73;97.82;101746.81;5033411;28;20003;-74
2023/09/10 07:23:42;;;;;;;;;;;;;;;20.76;97.72;101755.44;5034258;28;19924;-74
2023/09/10 07:26:07;;;;;;;;;;;;;;;20.80;97.69;101750.75;5033925;28;19978;-74
2023/09/10 07:28:33;;;;;;;;;;;;;;;20.82;97.60;101754.16;5033570;28;19913;-74
2023/09/10 07:30:58;;;;;;;;;;;;;;;20.85;97.63;101759.28;5032177;28;19920;-74
2023/09/10 07:33:23;;;;;;;;;;;;;;;20.87;98.34;101752.88;5032004;28;20259;-74
2023/09/10 07:35:48;;;;;;;;;;;;;;;20.92;98.07;101760.53;5034143;28;19917;-73
2023/09/10 07:38:14;;;;;;;;;;;;;;;20.96;98.19;101753.19;5034324;28;19920;-74
2023/09/10 07:40:39;;;;;;;;;;;;;;;20.99;98.05;101755.63;5033890;28;19917;-74
2023/09/10 07:43:04;;;;;;;;;;;;;;;21.01;98.03;101754.56;5034309;28;19921;-74
2023/09/10 07:45:29;;;;;;;;;;;;;;;21.05;98.19;101757.88;5032050;28;19916;-74
2023/09/10 07:47:56;;;;;;;;;;;;;;;21.08;98.32;101763.84;5031546;28;19996;-74
2023/09/10 07:50:22;;;;;;;;;;;;;;;21.13;98.45;101757.31;5035130;28;19920;-74
2023/09/10 07:52:47;;;;;;;;;;;;;;;21.15;98.44;101756.25;5036040;28;20272;-74
2023/09/10 07:55:12;;;;;;;;;;;;;;;21.18;98.06;101755.19;5035668;28;19935;-74
2023/09/10 07:57:39;;;;;;;;;;;;;;;21.21;98.22;101763.81;5035297;28;20077;-74
2023/09/10 08:00:06;;;;;;;;;;;;;;;21.25;97.73;101765.28;5035297;28;19913;-74
2023/09/10 08:02:34;;;;;;;;;;;;;;;21.28;97.73;101767.75;5036283;28;20216;-74
2023/09/10 08:05:00;;;;;;;;;;;;;;;21.32;97.51;101772.84;5033669;28;20235;-74
2023/09/10 08:07:25;;;;;;;;;;;;;;;21.35;97.47;101773.47;5034616;28;19913;-74
2023/09/10 08:09:50;;;;;;;;;;;;;;;21.37;97.45;101773.38;5034438;28;19919;-74
2023/09/10 08:12:15;;;;;;;;;;;;;;;21.39;97.43;101769.66;5034813;28;19920;-74
2023/09/10 08:14:41;;;;;;;;;;;;;;;21.41;97.92;101773.03;5034273;28;19978;-74
2023/09/10 08:17:06;;;;;;;;;;;;;;;21.44;97.89;101769.28;5034842;28;19944;-74
2023/09/10 08:19:32;;;;;;;;;;;;;;;21.47;98.64;101766.44;5032266;28;19947;-74
2023/09/10 08:21:57;;;;;;;;;;;;;;;21.51;98.28;101770.59;5031207;28;19916;-74
2023/09/10 08:24:23;;;;;;;;;;;;;;;21.55;98.05;101768.56;5028922;28;20001;-74
2023/09/10 08:26:48;;;;;;;;;;;;;;;21.57;98.79;101764.81;5030584;28;20288;-74
2023/09/10 08:29:13;;;;;;;;;;;;;;;21.64;98.61;101767.88;5031007;28;20200;-74
2023/09/10 08:31:38;;;;;;;;;;;;;;;21.66;98.07;101761.47;5030072;28;19935;-74
2023/09/10 08:34:04;;;;;;;;;;;;;;;21.71;97.73;101768.28;5033521;28;19951;-74
2023/09/10 08:36:29;;;;;;;;;;;;;;;21.73;97.84;101759.22;5030030;28;19917;-74
2023/09/10 08:38:54;;;;;;;;;;;;;;;21.78;97.29;101753.56;5034754;28;19936;-74
2023/09/10 08:41:33;;;;;;;;;;;;;;;21.82;96.99;101753.19;5031698;28;19944;-74
2023/09/10 08:43:58;;;;;;;;;;;;;;;21.87;96.60;101752.88;5035121;28;19924;-74
2023/09/10 08:46:29;;;;;;;;;;;;;;;21.92;96.77;101749.84;5034233;28;19913;-73
2023/09/10 08:48:56;;;;;;;;;;;;;;;22.01;96.34;101755.38;5032350;28;20236;-73
2023/09/10 08:51:21;;;;;;;;;;;;;;;22.10;95.80;101750.28;5029633;28;19963;-74
2023/09/10 08:53:47;;;;;;;;;;;;;;;22.17;96.61;101751.53;5033206;28;20147;-74
2023/09/10 08:56:13;;;;;;;;;;;;;;;22.22;96.28;101746.69;5031815;28;19917;-74
2023/09/10 08:58:40;;;;;;;;;;;;;;;22.27;96.05;101741.91;5017967;28;19917;-73
2023/09/10 09:01:06;;;;;;;;;;;;;;;22.33;95.92;101743.25;5030964;28;19928;-74
2023/09/10 09:03:32;;;;;;;;;;;;;;;22.39;97.06;101748.97;5030534;28;20000;-73
2023/09/10 09:05:59;;;;;;;;;;;;;;;22.47;97.73;101747.53;5030544;28;19913;-74
2023/09/10 09:08:28;;;;;;;;;;;;;;;22.54;97.88;101754.09;5029493;28;20204;-74
2023/09/10 09:10:54;;;;;;;;;;;;;;;22.59;96.86;101755.47;5029342;28;19912;-74
2023/09/10 09:13:20;;;;;;;;;;;;;;;22.65;96.79;101745.25;5031086;28;19928;-74
2023/09/10 09:15:47;;;;;;;;;;;;;;;22.70;97.24;101751.09;5028475;28;19978;-74
2023/09/10 09:18:13;;;;;;;;;;;;;;;22.81;98.64;101748.41;5026489;28;20035;-74
2023/09/10 09:20:39;;;;;;;;;;;;;;;22.88;97.95;101748.78;5025936;28;19994;-74
2023/09/10 09:23:10;;;;;;;;;;;;;;;22.94;97.75;101757.19;5023662;28;20204;-74
2023/09/10 09:25:36;;;;;;;;;;;;;;;23.01;97.24;101746.84;5023628;28;20231;-74
2023/09/10 09:28:02;;;;;;;;;;;;;;;23.06;96.41;101743.84;5026308;28;19917;-74
2023/09/10 09:30:28;;;;;;;;;;;;;;;23.12;95.98;101741.56;5027200;28;19917;-74
2023/09/10 09:32:53;;;;;;;;;;;;;;;23.18;95.44;101745.56;5026943;28;20165;-74
2023/09/10 09:35:18;;;;;;;;;;;;;;;23.26;95.59;101745.78;5025828;28;19917;-74
2023/09/10 09:37:44;;;;;;;;;;;;;;;23.36;96.89;101741.41;5026039;28;19944;-74
2023/09/10 09:40:09;;;;;;;;;;;;;;;23.47;96.15;101745.88;5024046;28;19924;-74
2023/09/10 09:42:36;;;;;;;;;;;;;;;23.53;95.74;101741.84;5023486;28;20252;-74
2023/09/10 09:45:02;;;;;;;;;;;;;;;23.58;95.17;101743.19;5024360;28;20188;-74
2023/09/10 09:47:27;;;;;;;;;;;;;;;23.63;94.62;101745.50;5023984;28;19939;-74
2023/09/10 09:49:55;;;;;;;;;;;;;;;23.72;94.45;101736.72;5024896;28;20262;-74
2023/09/10 09:52:21;;;;;;;;;;;;;;;23.78;94.20;101740.69;5025047;28;20154;-74
2023/09/10 09:54:49;;;;;;;;;;;;;;;23.83;94.21;101741.19;5025433;28;19945;-74
2023/09/10 09:57:14;;;;;;;;;;;;;;;23.87;93.75;101734.63;5023895;28;20192;-74
2023/09/10 09:59:40;;;;;;;;;;;;;;;23.90;94.41;101734.38;5023291;28;19924;-74
2023/09/10 10:02:08;;;;;;;;;;;;;;;23.94;94.07;101734.97;5023620;28;20456;-74
2023/09/10 10:04:34;;;;;;;;;;;;;;;24.02;93.80;101728.97;5024281;28;20216;-74
2023/09/10 10:07:01;;;;;;;;;;;;;;;24.09;94.76;101727.47;5024775;28;20230;-74
2023/09/10 10:09:36;;;;;;;;;;;;;;;24.14;93.85;101726.09;5023550;28;19917;-74
2023/09/10 10:12:04;;;;;;;;;;;;;;;24.21;93.19;101725.56;5022860;28;19917;-74
2023/09/10 10:14:31;;;;;;;;;;;;;;;24.28;92.22;101721.41;5024007;28;20012;-74
2023/09/10 10:16:57;;;;;;;;;;;;;;;24.38;91.21;101724.16;5024220;28;19916;-74
2023/09/10 10:19:22;;;;;;;;;;;;;;;24.44;90.37;101719.09;5028689;28;19924;-74
2023/09/10 10:21:48;;;;;;;;;;;;;;;24.48;90.72;101723.22;5025938;28;19917;-74
2023/09/10 10:24:15;;;;;;;;;;;;;;;24.56;89.12;101725.28;5025143;28;20007;-74
2023/09/10 10:26:42;;;;;;;;;;;;;;;24.62;89.45;101721.22;5024874;28;19916;-74
2023/09/10 10:29:08;;;;;;;;;;;;;;;24.65;89.31;101726.28;5025367;28;20024;-74
2023/09/10 10:31:35;;;;;;;;;;;;;;;24.66;89.15;101726.16;5026547;28;20286;-74
2023/09/10 10:34:01;;;;;;;;;;;;;;;24.69;89.46;101722.38;5027172;28;20255;-74
2023/09/10 10:36:32;;;;;;;;;;;;;;;24.71;89.82;101728.44;5031089;28;19912;-74
2023/09/10 10:39:00;;;;;;;;;;;;;;;24.74;89.28;101727.31;5032050;28;20353;-74
2023/09/10 10:41:27;;;;;;;;;;;;;;;24.77;89.18;101727.06;5031952;28;19925;-74
2023/09/10 10:43:59;;;;;;;;;;;;;;;24.82;86.97;101728.34;5032630;28;20167;-74
2023/09/10 10:46:25;;;;;;;;;;;;;;;24.89;87.85;101728.69;5026856;28;19924;-74
2023/09/10 10:48:50;;;;;;;;;;;;;;;24.94;81.75;101726.44;5027870;28;19917;-74
2023/09/10 10:51:17;;;;;;;;;;;;;;;24.96;82.38;101721.81;5031482;28;20249;-74
2023/09/10 10:53:42;;;;;;;;;;;;;;;24.97;83.16;101718.13;5031124;28;20008;-74
2023/09/10 10:56:09;;;;;;;;;;;;;;;24.98;82.80;101721.66;5028638;28;20282;-74
2023/09/10 10:58:37;;;;;;;;;;;;;;;25.00;83.18;101714.34;5029942;28;20283;-74
2023/09/10 11:01:02;;;;;;;;;;;;;;;25.06;79.01;101721.81;5030466;28;20159;-74
2023/09/10 11:03:28;;;;;;;;;;;;;;;25.14;81.86;101721.13;5031313;28;19921;-74
2023/09/10 11:05:53;;;;;;;;;;;;;;;25.19;82.43;101710.88;5031193;28;19967;-74
2023/09/10 11:08:25;;;;;;;;;;;;;;;25.24;78.56;101712.19;5031562;28;20290;-74
2023/09/10 11:10:51;;;;;;;;;;;;;;;25.27;80.26;101703.03;5030939;28;19917;-74
2023/09/10 11:13:16;;;;;;;;;;;;;;;25.30;79.72;101713.44;5029855;28;19967;-74
2023/09/10 11:16:01;;;;;;;;;;;;;;;25.34;81.00;101706.84;5030535;28;19956;-74
2023/09/10 11:18:36;;;;;;;;;;;;;;;25.40;81.10;101713.50;5030594;28;19913;-74
2023/09/10 11:21:04;;;;;;;;;;;;;;;25.51;73.93;101709.84;5030143;28;20235;-74
2023/09/10 11:23:30;;;;;;;;;;;;;;;25.54;75.47;101709.53;5032962;28;20107;-74
2023/09/10 11:26:14;;;;;;;;;;;;;;;25.55;76.59;101701.38;5035562;28;20018;-74
2023/09/10 11:28:59;;;;;;;;;;;;;;;25.57;78.39;101702.06;5032299;28;19988;-73
2023/09/10 11:31:41;;;;;;;;;;;;;;;25.60;79.24;101709.84;5035006;28;20262;-73
2023/09/10 11:34:28;;;;;;;;;;;;;;;25.65;79.62;101701.38;5034855;28;19948;-73
2023/09/10 11:36:54;;;;;;;;;;;;;;;25.70;79.81;101707.16;5030400;28;19916;-73
2023/09/10 11:39:20;;;;;;;;;;;;;;;25.72;79.27;101707.84;5034077;28;19909;-73
2023/09/10 11:41:47;;;;;;;;;;;;;;;25.77;75.06;101705.59;5035692;28;19940;-73
2023/09/10 11:44:12;;;;;;;;;;;;;;;25.82;73.84;101706.03;5034698;28;20483;-73
2023/09/10 11:46:38;;;;;;;;;;;;;;;25.86;74.44;101704.75;5034129;28;19917;-73
2023/09/10 11:49:03;;;;;;;;;;;;;;;25.88;75.88;101707.31;5033843;28;19917;-73
2023/09/10 11:51:29;;;;;;;;;;;;;;;25.91;76.50;101708.88;5033627;28;19917;-73
2023/09/10 11:53:54;;;;;;;;;;;;;;;25.95;76.32;101704.94;5034857;28;19970;-73
2023/09/10 11:56:20;;;;;;;;;;;;;;;26.01;73.41;101705.22;5033735;28;19917;-73
2023/09/10 11:58:45;;;;;;;;;;;;;;;26.06;75.61;101696.72;5034225;28;19913;-73
2023/09/10 12:01:10;;;;;;;;;;;;;;;26.12;73.92;101695.31;5034262;28;19923;-73
2023/09/10 12:03:35;;;;;;;;;;;;;;;26.13;74.91;101697.84;5035225;28;20254;-73
2023/09/10 12:06:02;;;;;;;;;;;;;;;26.17;75.73;101703.78;5033786;28;20082;-73
2023/09/10 12:08:27;;;;;;;;;;;;;;;26.20;73.95;101703.50;5026747;28;20116;-73
2023/09/10 12:10:55;;;;;;;;;;;;;;;26.20;73.69;101693.59;5029262;28;19924;-73
2023/09/10 12:13:20;;;;;;;;;;;;;;;26.26;74.18;101696.72;5026847;28;19921;-73
2023/09/10 12:15:45;;;;;;;;;;;;;;;26.26;73.85;101699.41;5027519;28;19983;-73
2023/09/10 12:18:11;;;;;;;;;;;;;;;26.30;74.78;101696.25;5027289;28;19916;-73
2023/09/10 12:20:36;;;;;;;;;;;;;;;26.33;75.29;101695.16;5032756;28;19917;-73
2023/09/10 12:23:03;;;;;;;;;;;;;;;26.39;74.72;101691.88;5034730;28;19974;-73
2023/09/10 12:25:28;;;;;;;;;;;;;;;26.48;72.53;101687.47;5034442;28;20220;-73
2023/09/10 12:27:54;;;;;;;;;;;;;;;26.48;72.68;101688.31;5034854;28;19924;-73
2023/09/10 12:30:20;;;;;;;;;;;;;;;26.50;71.08;101685.47;5034629;28;19914;-73
2023/09/10 12:32:45;;;;;;;;;;;;;;;26.56;67.60;101684.88;5034581;28;19923;-73